KGDV/GDV METAR and TAF weather

Enter ICAO airport designator
Station Type Date Time Source
KGDV METAR 2022/01/29 10:56 UTC NOAA

KGDV 291056Z AUTO 30009KT 10SM CLR M02/M08 A2999 RMK AO2 SLP181 T10221083 FZRANO


Station Type Date Time Source
KGDV Decoded METAR 2022/01/29 10:56 UTC NOAA

Glendive, Dawson Community Airport, MT, United States (KGDV) 47-08N 104-48W
Jan 29, 2022 - 05:56 AM EST / 2022.01.29 1056 UTC
Wind: from the WNW (300 degrees) at 10 MPH (9 KT):0
Visibility: 10 mile(s):0
Sky conditions: clear
Temperature: 28.0 F (-2.2 C)
Windchill: 19 F (-7 C):1
Dew Point: 17.1 F (-8.3 C)
Relative Humidity: 62%
Pressure (altimeter): 29.99 in. Hg (1015 hPa)
ob: KGDV 291056Z AUTO 30009KT 10SM CLR M02/M08 A2999 RMK AO2 SLP181 T10221083 FZRANO
cycle: 11

Station Type Date Time Source
KGDV TAF 2022/01/29 12:22 UTC NOAA

TAF KGDV 291120Z 2912/3012 28010KT P6SM SCT250
FM292300 VRB06KT P6SM SCT160
FM301100 VRB06KT P6SM BKN100 WS020/30035KT

Example: see airport list